メインページ
METAR-TAF:

METAR-TAF

空港 :

ヌアクショット空港

ヌアクショット, モーリタニア

緯度: 18-18-36N, 経度: 015-58-11W, 海抜: 3m

現時点の気象観測

当レポートは36分前の07:30(UTC)に作成
の風 12kt
気温 19°C
湿度 28%
気圧 1011 hPa
視程10km以上
1,500メートル以下は雲なし、積乱雲なし

METAR: GQNO 190730Z 01012KT CAVOK 19/00 Q1011 NOSIG

時間: 08:06 (08:06 UTC)

予報

当レポートは3時間6分前の05:00(UTC)に作成
予報は19日の 06時(UTC)から 20日の 12時(UTC)まで有効
北/北東の風 8kt
視程: 7000m
19日の 08時(UTC)から 19日の 10時(UTC)まで徐々に
の風 12kt
19日の 16時(UTC)から 19日の 18時(UTC)まで徐々に
北/北西の風 12kt
20日の 08時(UTC)から 20日の 10時(UTC)まで徐々に
の風 10kt

TAF: GQNO 190500Z 1906/2012 02008KT 7000 NSC BECMG 1908/1910 08012KT BECMG 1916/1918 34012KT BECMG 2008/2010 09010KT

4,000以上の空港の気象観測と天気予報(METAR報とTAF報)

利用可能な観測所は地図上に黄色い丸と赤い丸で示す。

丸の上にカーソルを重ねると観測所名を参照できる。

次にクリックすると気象観測と天気予報を参照できる。

マップの切り替え:黒色「×」印の緑ボタンをクリックして拡大、「-」印の緑ボタンをクリックして縮小、緑色の三角印をクリックして隣りの地図に切り替え


METAR-TAF: